sensor_id;sensor_type;location;lat;lon;timestamp;temperature;humidity
814;DHT22;389;48.710;9.392;2022-07-29T00:00:41;20.10;99.90
814;DHT22;389;48.710;9.392;2022-07-29T00:03:10;20.00;99.90
814;DHT22;389;48.710;9.392;2022-07-29T00:05:36;20.00;99.90
814;DHT22;389;48.710;9.392;2022-07-29T00:08:03;20.00;99.90
814;DHT22;389;48.710;9.392;2022-07-29T00:10:29;20.00;99.90
814;DHT22;389;48.710;9.392;2022-07-29T00:12:54;20.00;99.90
814;DHT22;389;48.710;9.392;2022-07-29T00:15:20;20.00;99.90
814;DHT22;389;48.710;9.392;2022-07-29T00:17:46;20.00;99.90
814;DHT22;389;48.710;9.392;2022-07-29T00:20:11;20.00;99.90
814;DHT22;389;48.710;9.392;2022-07-29T00:22:38;20.00;99.90
814;DHT22;389;48.710;9.392;2022-07-29T00:25:05;19.90;99.90
814;DHT22;389;48.710;9.392;2022-07-29T00:27:31;20.00;99.90
814;DHT22;389;48.710;9.392;2022-07-29T00:29:56;20.00;99.90
814;DHT22;389;48.710;9.392;2022-07-29T00:32:22;20.00;99.90
814;DHT22;389;48.710;9.392;2022-07-29T00:34:47;20.00;99.90
814;DHT22;389;48.710;9.392;2022-07-29T00:37:31;20.00;99.90
814;DHT22;389;48.710;9.392;2022-07-29T00:39:57;20.10;99.90
814;DHT22;389;48.710;9.392;2022-07-29T00:42:22;20.00;99.90
814;DHT22;389;48.710;9.392;2022-07-29T00:44:48;20.00;99.90
814;DHT22;389;48.710;9.392;2022-07-29T00:47:14;20.10;99.90
814;DHT22;389;48.710;9.392;2022-07-29T00:49:41;20.10;99.90
814;DHT22;389;48.710;9.392;2022-07-29T00:52:08;20.10;99.90
814;DHT22;389;48.710;9.392;2022-07-29T00:54:35;20.00;99.90
814;DHT22;389;48.710;9.392;2022-07-29T00:57:00;20.10;99.90
814;DHT22;389;48.710;9.392;2022-07-29T00:59:26;20.00;99.90
814;DHT22;389;48.710;9.392;2022-07-29T01:01:53;20.00;99.90
814;DHT22;389;48.710;9.392;2022-07-29T01:04:20;20.00;99.90
814;DHT22;389;48.710;9.392;2022-07-29T01:06:46;19.90;99.90
814;DHT22;389;48.710;9.392;2022-07-29T01:09:13;19.90;99.90
814;DHT22;389;48.710;9.392;2022-07-29T01:11:39;19.90;99.90
814;DHT22;389;48.710;9.392;2022-07-29T01:14:06;19.90;99.90
814;DHT22;389;48.710;9.392;2022-07-29T01:16:36;19.80;99.90
814;DHT22;389;48.710;9.392;2022-07-29T01:19:30;19.70;99.90
814;DHT22;389;48.710;9.392;2022-07-29T01:21:59;19.70;99.90
814;DHT22;389;48.710;9.392;2022-07-29T01:27:32;19.50;99.90
814;DHT22;389;48.710;9.392;2022-07-29T01:30:02;19.50;99.90
814;DHT22;389;48.710;9.392;2022-07-29T01:32:31;19.40;99.90
814;DHT22;389;48.710;9.392;2022-07-29T01:35:19;19.40;99.90
814;DHT22;389;48.710;9.392;2022-07-29T01:38:13;19.30;99.90
814;DHT22;389;48.710;9.392;2022-07-29T01:40:58;19.20;99.90
814;DHT22;389;48.710;9.392;2022-07-29T01:43:41;19.20;99.90
814;DHT22;389;48.710;9.392;2022-07-29T01:46:13;19.20;99.90
814;DHT22;389;48.710;9.392;2022-07-29T01:48:47;19.00;99.90
814;DHT22;389;48.710;9.392;2022-07-29T01:51:20;19.10;99.90
814;DHT22;389;48.710;9.392;2022-07-29T01:53:55;18.90;99.90
814;DHT22;389;48.710;9.392;2022-07-29T01:56:25;18.90;99.90
814;DHT22;389;48.710;9.392;2022-07-29T01:58:55;18.90;99.90
814;DHT22;389;48.710;9.392;2022-07-29T02:01:23;18.90;99.90
814;DHT22;389;48.710;9.392;2022-07-29T02:03:50;18.80;99.90
814;DHT22;389;48.710;9.392;2022-07-29T02:06:19;18.80;99.90
814;DHT22;389;48.710;9.392;2022-07-29T02:08:47;18.70;99.90
814;DHT22;389;48.710;9.392;2022-07-29T02:11:14;18.70;99.90
814;DHT22;389;48.710;9.392;2022-07-29T02:13:40;18.70;99.90
814;DHT22;389;48.710;9.392;2022-07-29T02:16:07;18.70;99.90
814;DHT22;389;48.710;9.392;2022-07-29T02:18:36;18.70;99.90
814;DHT22;389;48.710;9.392;2022-07-29T02:21:03;18.60;99.90
814;DHT22;389;48.710;9.392;2022-07-29T02:23:31;18.50;99.90
814;DHT22;389;48.710;9.392;2022-07-29T02:25:59;18.50;99.90
814;DHT22;389;48.710;9.392;2022-07-29T02:28:27;18.50;99.90
814;DHT22;389;48.710;9.392;2022-07-29T02:30:54;18.50;99.90
814;DHT22;389;48.710;9.392;2022-07-29T02:33:21;18.40;99.90
814;DHT22;389;48.710;9.392;2022-07-29T02:35:49;18.50;99.90
814;DHT22;389;48.710;9.392;2022-07-29T02:38:16;18.40;99.90
814;DHT22;389;48.710;9.392;2022-07-29T02:41:04;18.40;99.90
814;DHT22;389;48.710;9.392;2022-07-29T02:43:31;18.30;99.90
814;DHT22;389;48.710;9.392;2022-07-29T02:45:59;18.30;99.90
814;DHT22;389;48.710;9.392;2022-07-29T02:48:34;18.30;99.90
814;DHT22;389;48.710;9.392;2022-07-29T02:51:12;18.20;99.90
814;DHT22;389;48.710;9.392;2022-07-29T02:53:39;18.20;99.90
814;DHT22;389;48.710;9.392;2022-07-29T02:56:16;18.20;99.90
814;DHT22;389;48.710;9.392;2022-07-29T02:58:51;18.20;99.90
814;DHT22;389;48.710;9.392;2022-07-29T03:01:27;18.20;99.90
814;DHT22;389;48.710;9.392;2022-07-29T03:03:55;18.10;99.90
814;DHT22;389;48.710;9.392;2022-07-29T03:06:23;18.10;99.90
814;DHT22;389;48.710;9.392;2022-07-29T03:08:51;18.10;99.90
814;DHT22;389;48.710;9.392;2022-07-29T03:11:18;18.10;99.90
814;DHT22;389;48.710;9.392;2022-07-29T03:13:44;18.10;99.90
814;DHT22;389;48.710;9.392;2022-07-29T03:16:11;18.10;99.90
814;DHT22;389;48.710;9.392;2022-07-29T03:18:38;18.00;99.90
814;DHT22;389;48.710;9.392;2022-07-29T03:21:04;18.00;99.90
814;DHT22;389;48.710;9.392;2022-07-29T03:23:30;18.00;99.90
814;DHT22;389;48.710;9.392;2022-07-29T03:25:56;18.00;99.90
814;DHT22;389;48.710;9.392;2022-07-29T03:28:22;17.90;99.90
814;DHT22;389;48.710;9.392;2022-07-29T03:30:48;17.90;99.90
814;DHT22;389;48.710;9.392;2022-07-29T03:33:14;17.80;99.90
814;DHT22;389;48.710;9.392;2022-07-29T03:35:40;17.80;99.90
814;DHT22;389;48.710;9.392;2022-07-29T03:38:05;17.80;99.90
814;DHT22;389;48.710;9.392;2022-07-29T03:40:35;17.80;99.90
814;DHT22;389;48.710;9.392;2022-07-29T03:43:02;17.80;99.90
814;DHT22;389;48.710;9.392;2022-07-29T03:45:28;17.70;99.90
814;DHT22;389;48.710;9.392;2022-07-29T03:48:06;17.70;99.90
814;DHT22;389;48.710;9.392;2022-07-29T03:50:33;17.70;99.90
814;DHT22;389;48.710;9.392;2022-07-29T03:52:59;17.70;99.90
814;DHT22;389;48.710;9.392;2022-07-29T03:55:26;17.70;99.90
814;DHT22;389;48.710;9.392;2022-07-29T03:57:54;17.70;99.90
814;DHT22;389;48.710;9.392;2022-07-29T04:00:23;17.70;99.90
814;DHT22;389;48.710;9.392;2022-07-29T04:02:49;17.70;99.90
814;DHT22;389;48.710;9.392;2022-07-29T04:05:15;17.70;99.90
814;DHT22;389;48.710;9.392;2022-07-29T04:07:45;17.70;99.90
814;DHT22;389;48.710;9.392;2022-07-29T04:10:11;17.70;99.90
814;DHT22;389;48.710;9.392;2022-07-29T04:12:37;17.80;99.90
814;DHT22;389;48.710;9.392;2022-07-29T04:15:04;17.80;99.90
814;DHT22;389;48.710;9.392;2022-07-29T04:17:30;17.80;99.90
814;DHT22;389;48.710;9.392;2022-07-29T04:19:55;17.80;99.90
814;DHT22;389;48.710;9.392;2022-07-29T04:22:21;17.80;99.90
814;DHT22;389;48.710;9.392;2022-07-29T04:24:46;17.80;99.90
814;DHT22;389;48.710;9.392;2022-07-29T04:27:12;17.80;99.90
814;DHT22;389;48.710;9.392;2022-07-29T04:29:37;17.90;99.90
814;DHT22;389;48.710;9.392;2022-07-29T04:32:03;17.90;99.90
814;DHT22;389;48.710;9.392;2022-07-29T04:34:29;17.90;99.90
814;DHT22;389;48.710;9.392;2022-07-29T04:36:55;17.90;99.90
814;DHT22;389;48.710;9.392;2022-07-29T04:39:21;17.90;99.90
814;DHT22;389;48.710;9.392;2022-07-29T04:41:46;18.00;99.90
814;DHT22;389;48.710;9.392;2022-07-29T04:44:12;18.00;99.90
814;DHT22;389;48.710;9.392;2022-07-29T04:46:38;18.00;99.90
814;DHT22;389;48.710;9.392;2022-07-29T04:49:04;18.10;99.90
814;DHT22;389;48.710;9.392;2022-07-29T04:51:29;18.20;99.90
814;DHT22;389;48.710;9.392;2022-07-29T04:53:55;18.30;99.90
814;DHT22;389;48.710;9.392;2022-07-29T04:56:31;18.30;99.90
814;DHT22;389;48.710;9.392;2022-07-29T04:58:57;18.40;99.90
814;DHT22;389;48.710;9.392;2022-07-29T05:01:23;18.50;99.90
814;DHT22;389;48.710;9.392;2022-07-29T05:03:48;18.50;99.90
814;DHT22;389;48.710;9.392;2022-07-29T05:06:14;18.70;99.90
814;DHT22;389;48.710;9.392;2022-07-29T05:08:39;18.70;99.90
814;DHT22;389;48.710;9.392;2022-07-29T05:11:05;18.70;99.90
814;DHT22;389;48.710;9.392;2022-07-29T05:13:30;19.00;99.90
814;DHT22;389;48.710;9.392;2022-07-29T05:15:56;19.10;99.90
814;DHT22;389;48.710;9.392;2022-07-29T05:18:24;19.40;99.90
814;DHT22;389;48.710;9.392;2022-07-29T05:20:49;19.70;99.90
814;DHT22;389;48.710;9.392;2022-07-29T05:23:15;20.00;99.90
814;DHT22;389;48.710;9.392;2022-07-29T05:25:41;20.20;99.90
814;DHT22;389;48.710;9.392;2022-07-29T05:28:06;20.50;99.90
814;DHT22;389;48.710;9.392;2022-07-29T05:30:32;20.80;99.90
814;DHT22;389;48.710;9.392;2022-07-29T05:32:57;21.10;99.90
814;DHT22;389;48.710;9.392;2022-07-29T05:35:23;21.50;99.90
814;DHT22;389;48.710;9.392;2022-07-29T05:37:49;21.90;99.90
814;DHT22;389;48.710;9.392;2022-07-29T05:40:14;22.30;99.90
814;DHT22;389;48.710;9.392;2022-07-29T05:42:40;22.80;99.90
814;DHT22;389;48.710;9.392;2022-07-29T05:45:06;23.10;99.90
814;DHT22;389;48.710;9.392;2022-07-29T05:47:31;23.40;99.90
814;DHT22;389;48.710;9.392;2022-07-29T05:49:57;23.70;99.90
814;DHT22;389;48.710;9.392;2022-07-29T05:52:23;23.90;99.90
814;DHT22;389;48.710;9.392;2022-07-29T05:54:49;23.90;99.10
814;DHT22;389;48.710;9.392;2022-07-29T05:57:18;23.80;98.30
814;DHT22;389;48.710;9.392;2022-07-29T05:59:44;23.70;97.80
814;DHT22;389;48.710;9.392;2022-07-29T06:02:23;23.60;97.60
814;DHT22;389;48.710;9.392;2022-07-29T06:04:48;23.50;98.00
814;DHT22;389;48.710;9.392;2022-07-29T06:07:15;23.60;98.00
814;DHT22;389;48.710;9.392;2022-07-29T06:09:41;23.70;98.10
814;DHT22;389;48.710;9.392;2022-07-29T06:12:07;23.70;97.40
814;DHT22;389;48.710;9.392;2022-07-29T06:14:33;23.70;97.30
814;DHT22;389;48.710;9.392;2022-07-29T06:16:59;23.90;97.50
814;DHT22;389;48.710;9.392;2022-07-29T06:19:28;23.90;96.60
814;DHT22;389;48.710;9.392;2022-07-29T06:21:54;23.80;96.90
814;DHT22;389;48.710;9.392;2022-07-29T06:24:20;23.70;96.80
814;DHT22;389;48.710;9.392;2022-07-29T06:26:45;23.80;97.40
814;DHT22;389;48.710;9.392;2022-07-29T06:29:11;23.90;97.50
814;DHT22;389;48.710;9.392;2022-07-29T06:31:37;23.90;96.60
814;DHT22;389;48.710;9.392;2022-07-29T06:34:03;24.00;96.50
814;DHT22;389;48.710;9.392;2022-07-29T06:36:29;24.10;96.70
814;DHT22;389;48.710;9.392;2022-07-29T06:38:54;24.20;96.60
814;DHT22;389;48.710;9.392;2022-07-29T06:43:48;24.50;95.60
814;DHT22;389;48.710;9.392;2022-07-29T06:46:15;24.70;95.50
814;DHT22;389;48.710;9.392;2022-07-29T06:48:43;24.90;95.00
814;DHT22;389;48.710;9.392;2022-07-29T06:51:10;25.30;94.90
814;DHT22;389;48.710;9.392;2022-07-29T06:53:37;25.70;94.60
814;DHT22;389;48.710;9.392;2022-07-29T06:56:03;26.10;93.70
814;DHT22;389;48.710;9.392;2022-07-29T06:58:29;26.20;93.20
814;DHT22;389;48.710;9.392;2022-07-29T07:00:57;26.40;92.70
814;DHT22;389;48.710;9.392;2022-07-29T07:03:24;26.50;92.60
814;DHT22;389;48.710;9.392;2022-07-29T07:05:49;26.50;92.20
814;DHT22;389;48.710;9.392;2022-07-29T07:08:15;26.50;92.00
814;DHT22;389;48.710;9.392;2022-07-29T07:10:44;26.30;91.70
814;DHT22;389;48.710;9.392;2022-07-29T07:13:10;26.30;91.80
814;DHT22;389;48.710;9.392;2022-07-29T07:15:37;26.20;92.10
814;DHT22;389;48.710;9.392;2022-07-29T07:18:04;26.30;91.60
814;DHT22;389;48.710;9.392;2022-07-29T07:20:31;26.30;90.90
814;DHT22;389;48.710;9.392;2022-07-29T07:22:57;26.40;90.80
814;DHT22;389;48.710;9.392;2022-07-29T07:25:23;26.50;91.10
814;DHT22;389;48.710;9.392;2022-07-29T07:27:48;26.30;91.10
814;DHT22;389;48.710;9.392;2022-07-29T07:30:14;26.20;91.80
814;DHT22;389;48.710;9.392;2022-07-29T07:32:39;26.20;92.50
814;DHT22;389;48.710;9.392;2022-07-29T07:35:06;26.10;92.20
814;DHT22;389;48.710;9.392;2022-07-29T07:37:32;26.20;92.40
814;DHT22;389;48.710;9.392;2022-07-29T07:39:58;26.20;91.70
814;DHT22;389;48.710;9.392;2022-07-29T07:42:24;26.20;91.80
814;DHT22;389;48.710;9.392;2022-07-29T07:44:50;26.20;91.50
814;DHT22;389;48.710;9.392;2022-07-29T07:47:16;26.20;90.90
814;DHT22;389;48.710;9.392;2022-07-29T07:49:48;26.20;91.10
814;DHT22;389;48.710;9.392;2022-07-29T07:52:16;26.20;90.90
814;DHT22;389;48.710;9.392;2022-07-29T07:54:42;26.20;91.30
814;DHT22;389;48.710;9.392;2022-07-29T07:57:08;26.20;91.50
814;DHT22;389;48.710;9.392;2022-07-29T07:59:34;26.30;91.70
814;DHT22;389;48.710;9.392;2022-07-29T08:02:00;26.40;91.10
814;DHT22;389;48.710;9.392;2022-07-29T08:04:26;26.40;90.90
814;DHT22;389;48.710;9.392;2022-07-29T08:06:52;26.50;90.60
814;DHT22;389;48.710;9.392;2022-07-29T08:09:20;26.60;90.60
814;DHT22;389;48.710;9.392;2022-07-29T08:11:45;26.60;90.40
814;DHT22;389;48.710;9.392;2022-07-29T08:14:11;26.70;90.30
814;DHT22;389;48.710;9.392;2022-07-29T08:16:37;26.70;90.50
814;DHT22;389;48.710;9.392;2022-07-29T08:19:02;26.80;90.60
814;DHT22;389;48.710;9.392;2022-07-29T08:21:28;26.80;90.00
814;DHT22;389;48.710;9.392;2022-07-29T08:23:54;26.90;89.90
814;DHT22;389;48.710;9.392;2022-07-29T08:26:41;27.00;90.50
814;DHT22;389;48.710;9.392;2022-07-29T08:29:06;27.00;89.70
814;DHT22;389;48.710;9.392;2022-07-29T08:31:32;27.10;90.10
814;DHT22;389;48.710;9.392;2022-07-29T08:33:57;27.20;89.40
814;DHT22;389;48.710;9.392;2022-07-29T08:36:25;27.30;89.60
814;DHT22;389;48.710;9.392;2022-07-29T08:38:51;27.30;88.40
814;DHT22;389;48.710;9.392;2022-07-29T08:41:18;27.20;89.40
814;DHT22;389;48.710;9.392;2022-07-29T08:43:44;27.20;89.20
814;DHT22;389;48.710;9.392;2022-07-29T08:46:10;27.10;90.30
814;DHT22;389;48.710;9.392;2022-07-29T08:48:36;27.10;90.80
814;DHT22;389;48.710;9.392;2022-07-29T08:51:02;27.10;90.00
814;DHT22;389;48.710;9.392;2022-07-29T08:53:28;27.00;90.30
814;DHT22;389;48.710;9.392;2022-07-29T08:55:55;26.90;89.70
814;DHT22;389;48.710;9.392;2022-07-29T08:58:22;27.00;90.00
814;DHT22;389;48.710;9.392;2022-07-29T09:00:52;27.00;90.10
814;DHT22;389;48.710;9.392;2022-07-29T09:03:47;27.10;89.30
814;DHT22;389;48.710;9.392;2022-07-29T09:06:14;27.10;88.50
814;DHT22;389;48.710;9.392;2022-07-29T09:08:40;27.10;89.30
814;DHT22;389;48.710;9.392;2022-07-29T09:11:06;27.20;90.10
814;DHT22;389;48.710;9.392;2022-07-29T09:13:33;27.20;90.20
814;DHT22;389;48.710;9.392;2022-07-29T09:15:58;27.30;90.10
814;DHT22;389;48.710;9.392;2022-07-29T09:18:41;27.30;90.30
814;DHT22;389;48.710;9.392;2022-07-29T09:21:15;27.40;88.80
814;DHT22;389;48.710;9.392;2022-07-29T09:26:34;27.50;89.10
814;DHT22;389;48.710;9.392;2022-07-29T09:29:08;27.60;88.90
814;DHT22;389;48.710;9.392;2022-07-29T09:31:36;27.70;88.40
814;DHT22;389;48.710;9.392;2022-07-29T09:34:04;27.80;87.80
814;DHT22;389;48.710;9.392;2022-07-29T09:36:30;27.90;85.90
814;DHT22;389;48.710;9.392;2022-07-29T09:39:00;27.90;86.10
814;DHT22;389;48.710;9.392;2022-07-29T09:41:29;28.00;85.40
814;DHT22;389;48.710;9.392;2022-07-29T09:43:59;28.10;84.00
814;DHT22;389;48.710;9.392;2022-07-29T09:46:25;28.20;84.40
814;DHT22;389;48.710;9.392;2022-07-29T09:49:11;28.30;84.80
814;DHT22;389;48.710;9.392;2022-07-29T09:51:38;28.50;84.10
814;DHT22;389;48.710;9.392;2022-07-29T09:54:24;28.60;83.60
814;DHT22;389;48.710;9.392;2022-07-29T09:56:49;28.70;82.30
814;DHT22;389;48.710;9.392;2022-07-29T09:59:15;28.80;81.60
814;DHT22;389;48.710;9.392;2022-07-29T10:01:41;28.90;81.10
814;DHT22;389;48.710;9.392;2022-07-29T10:04:07;28.90;80.50
814;DHT22;389;48.710;9.392;2022-07-29T10:06:33;28.90;79.40
814;DHT22;389;48.710;9.392;2022-07-29T10:09:11;28.90;79.20
814;DHT22;389;48.710;9.392;2022-07-29T10:11:37;29.00;79.90
814;DHT22;389;48.710;9.392;2022-07-29T10:14:03;29.10;78.90
814;DHT22;389;48.710;9.392;2022-07-29T10:16:30;29.10;78.30
814;DHT22;389;48.710;9.392;2022-07-29T10:18:58;29.20;78.40
814;DHT22;389;48.710;9.392;2022-07-29T10:21:25;29.30;77.80
814;DHT22;389;48.710;9.392;2022-07-29T10:23:52;29.50;77.70
814;DHT22;389;48.710;9.392;2022-07-29T10:26:18;29.80;77.10
814;DHT22;389;48.710;9.392;2022-07-29T10:28:44;30.00;75.90
814;DHT22;389;48.710;9.392;2022-07-29T10:31:29;30.30;75.50
814;DHT22;389;48.710;9.392;2022-07-29T10:40:36;31.20;74.90
814;DHT22;389;48.710;9.392;2022-07-29T10:43:32;31.70;72.80
814;DHT22;389;48.710;9.392;2022-07-29T10:46:02;32.00;69.60
814;DHT22;389;48.710;9.392;2022-07-29T10:48:28;32.20;68.90
814;DHT22;389;48.710;9.392;2022-07-29T10:51:00;32.40;68.80
814;DHT22;389;48.710;9.392;2022-07-29T10:53:48;32.60;68.50
814;DHT22;389;48.710;9.392;2022-07-29T10:56:29;32.90;67.70
814;DHT22;389;48.710;9.392;2022-07-29T11:01:45;33.10;65.10
814;DHT22;389;48.710;9.392;2022-07-29T11:04:11;33.20;65.40
814;DHT22;389;48.710;9.392;2022-07-29T11:09:30;33.20;63.50
814;DHT22;389;48.710;9.392;2022-07-29T11:11:57;33.20;64.20
814;DHT22;389;48.710;9.392;2022-07-29T11:14:59;33.20;64.10
814;DHT22;389;48.710;9.392;2022-07-29T11:17:27;33.00;63.60
814;DHT22;389;48.710;9.392;2022-07-29T11:22:57;32.50;64.80
814;DHT22;389;48.710;9.392;2022-07-29T11:25:23;32.20;65.70
814;DHT22;389;48.710;9.392;2022-07-29T11:27:49;31.90;65.70
814;DHT22;389;48.710;9.392;2022-07-29T11:30:15;31.70;65.40
814;DHT22;389;48.710;9.392;2022-07-29T11:32:42;31.40;65.60
814;DHT22;389;48.710;9.392;2022-07-29T11:37:37;30.90;67.60
814;DHT22;389;48.710;9.392;2022-07-29T11:45:05;28.60;63.60
814;DHT22;389;48.710;9.392;2022-07-29T11:47:33;27.50;71.70
814;DHT22;389;48.710;9.392;2022-07-29T11:50:01;25.00;73.30
814;DHT22;389;48.710;9.392;2022-07-29T11:52:45;22.50;80.90
814;DHT22;389;48.710;9.392;2022-07-29T11:55:17;20.50;90.50
814;DHT22;389;48.710;9.392;2022-07-29T12:03:01;18.50;96.30
814;DHT22;389;48.710;9.392;2022-07-29T12:05:37;18.40;98.30
814;DHT22;389;48.710;9.392;2022-07-29T12:10:39;18.50;99.90
814;DHT22;389;48.710;9.392;2022-07-29T12:13:06;18.60;99.90
814;DHT22;389;48.710;9.392;2022-07-29T12:15:32;18.70;99.90
814;DHT22;389;48.710;9.392;2022-07-29T12:17:57;18.80;99.90
814;DHT22;389;48.710;9.392;2022-07-29T12:20:28;19.00;99.90
814;DHT22;389;48.710;9.392;2022-07-29T12:22:55;19.10;99.90
814;DHT22;389;48.710;9.392;2022-07-29T12:25:22;19.20;99.90
814;DHT22;389;48.710;9.392;2022-07-29T12:28:01;19.40;99.90
814;DHT22;389;48.710;9.392;2022-07-29T12:30:50;19.60;99.90
814;DHT22;389;48.710;9.392;2022-07-29T12:33:28;19.80;99.90
814;DHT22;389;48.710;9.392;2022-07-29T12:35:57;20.00;99.90
814;DHT22;389;48.710;9.392;2022-07-29T12:38:24;20.20;99.90
814;DHT22;389;48.710;9.392;2022-07-29T12:40:51;20.40;99.90
814;DHT22;389;48.710;9.392;2022-07-29T12:43:19;20.60;99.90
814;DHT22;389;48.710;9.392;2022-07-29T12:45:50;20.70;99.90
814;DHT22;389;48.710;9.392;2022-07-29T12:48:17;20.60;99.90
814;DHT22;389;48.710;9.392;2022-07-29T12:53:19;20.50;99.90
814;DHT22;389;48.710;9.392;2022-07-29T12:55:47;20.50;99.90
814;DHT22;389;48.710;9.392;2022-07-29T12:58:45;20.50;99.90
814;DHT22;389;48.710;9.392;2022-07-29T13:01:16;20.50;99.90
814;DHT22;389;48.710;9.392;2022-07-29T13:03:53;20.50;99.90
814;DHT22;389;48.710;9.392;2022-07-29T13:09:08;20.60;99.90
814;DHT22;389;48.710;9.392;2022-07-29T13:11:49;20.70;99.90
814;DHT22;389;48.710;9.392;2022-07-29T13:17:08;20.90;99.90
814;DHT22;389;48.710;9.392;2022-07-29T13:22:23;21.00;99.90
814;DHT22;389;48.710;9.392;2022-07-29T13:24:57;21.10;99.90
814;DHT22;389;48.710;9.392;2022-07-29T13:27:29;21.00;99.90
814;DHT22;389;48.710;9.392;2022-07-29T13:29:56;21.10;99.90
814;DHT22;389;48.710;9.392;2022-07-29T13:32:23;21.10;99.90
814;DHT22;389;48.710;9.392;2022-07-29T13:34:50;21.10;99.90
814;DHT22;389;48.710;9.392;2022-07-29T13:37:18;21.10;99.90
814;DHT22;389;48.710;9.392;2022-07-29T13:39:44;21.10;99.90
814;DHT22;389;48.710;9.392;2022-07-29T13:42:10;21.20;99.90
814;DHT22;389;48.710;9.392;2022-07-29T13:44:38;21.20;99.90
814;DHT22;389;48.710;9.392;2022-07-29T13:47:05;21.20;99.90
814;DHT22;389;48.710;9.392;2022-07-29T13:49:31;21.30;99.90
814;DHT22;389;48.710;9.392;2022-07-29T13:51:57;21.30;99.90
814;DHT22;389;48.710;9.392;2022-07-29T13:54:22;21.40;99.90
814;DHT22;389;48.710;9.392;2022-07-29T13:56:50;21.50;99.90
814;DHT22;389;48.710;9.392;2022-07-29T13:59:15;21.60;99.90
814;DHT22;389;48.710;9.392;2022-07-29T14:01:44;21.70;99.90
814;DHT22;389;48.710;9.392;2022-07-29T14:04:11;21.80;99.90
814;DHT22;389;48.710;9.392;2022-07-29T14:06:37;22.00;99.90
814;DHT22;389;48.710;9.392;2022-07-29T14:09:03;22.10;99.90
814;DHT22;389;48.710;9.392;2022-07-29T14:11:32;22.10;99.90
814;DHT22;389;48.710;9.392;2022-07-29T14:13:58;22.20;99.90
814;DHT22;389;48.710;9.392;2022-07-29T14:16:23;22.40;99.90
814;DHT22;389;48.710;9.392;2022-07-29T14:18:49;22.50;99.90
814;DHT22;389;48.710;9.392;2022-07-29T14:21:14;22.80;99.90
814;DHT22;389;48.710;9.392;2022-07-29T14:23:40;23.00;99.90
814;DHT22;389;48.710;9.392;2022-07-29T14:26:06;23.20;99.90
814;DHT22;389;48.710;9.392;2022-07-29T14:28:32;23.30;99.90
814;DHT22;389;48.710;9.392;2022-07-29T14:30:57;23.50;99.90
814;DHT22;389;48.710;9.392;2022-07-29T14:33:23;23.60;99.90
814;DHT22;389;48.710;9.392;2022-07-29T14:35:48;23.60;99.90
814;DHT22;389;48.710;9.392;2022-07-29T14:38:14;23.70;99.90
814;DHT22;389;48.710;9.392;2022-07-29T14:40:40;23.70;99.90
814;DHT22;389;48.710;9.392;2022-07-29T14:43:05;23.80;99.40
814;DHT22;389;48.710;9.392;2022-07-29T14:45:31;23.80;99.10
814;DHT22;389;48.710;9.392;2022-07-29T14:47:58;23.80;99.30
814;DHT22;389;48.710;9.392;2022-07-29T14:50:25;23.90;99.40
814;DHT22;389;48.710;9.392;2022-07-29T14:52:54;23.90;99.70
814;DHT22;389;48.710;9.392;2022-07-29T14:55:20;23.90;99.90
814;DHT22;389;48.710;9.392;2022-07-29T14:57:47;24.00;99.50
814;DHT22;389;48.710;9.392;2022-07-29T15:00:13;24.00;99.70
814;DHT22;389;48.710;9.392;2022-07-29T15:02:53;24.00;99.60
814;DHT22;389;48.710;9.392;2022-07-29T15:05:51;24.00;99.60
814;DHT22;389;48.710;9.392;2022-07-29T15:08:16;24.10;99.80
814;DHT22;389;48.710;9.392;2022-07-29T15:10:42;24.10;99.80
814;DHT22;389;48.710;9.392;2022-07-29T15:13:07;24.10;99.50
814;DHT22;389;48.710;9.392;2022-07-29T15:15:33;24.10;99.20
814;DHT22;389;48.710;9.392;2022-07-29T15:17:59;24.10;99.20
814;DHT22;389;48.710;9.392;2022-07-29T15:20:24;24.10;99.00
814;DHT22;389;48.710;9.392;2022-07-29T15:22:52;24.10;98.70
814;DHT22;389;48.710;9.392;2022-07-29T15:25:18;24.10;99.20
814;DHT22;389;48.710;9.392;2022-07-29T15:27:43;24.10;99.30
814;DHT22;389;48.710;9.392;2022-07-29T15:30:10;24.10;99.30
814;DHT22;389;48.710;9.392;2022-07-29T15:32:36;24.20;99.60
814;DHT22;389;48.710;9.392;2022-07-29T15:35:01;24.20;99.50
814;DHT22;389;48.710;9.392;2022-07-29T15:37:28;24.20;99.00
814;DHT22;389;48.710;9.392;2022-07-29T15:39:54;24.20;99.00
814;DHT22;389;48.710;9.392;2022-07-29T15:42:19;24.30;99.30
814;DHT22;389;48.710;9.392;2022-07-29T15:44:45;24.30;99.50
814;DHT22;389;48.710;9.392;2022-07-29T15:47:11;24.40;99.20
814;DHT22;389;48.710;9.392;2022-07-29T15:49:40;24.40;99.00
814;DHT22;389;48.710;9.392;2022-07-29T15:52:08;24.50;99.00
814;DHT22;389;48.710;9.392;2022-07-29T15:54:36;24.50;98.90
814;DHT22;389;48.710;9.392;2022-07-29T15:57:03;24.60;98.60
814;DHT22;389;48.710;9.392;2022-07-29T15:59:30;24.60;98.60
814;DHT22;389;48.710;9.392;2022-07-29T16:01:56;24.80;98.60
814;DHT22;389;48.710;9.392;2022-07-29T16:04:22;24.80;98.60
814;DHT22;389;48.710;9.392;2022-07-29T16:06:49;24.80;98.50
814;DHT22;389;48.710;9.392;2022-07-29T16:09:16;24.80;98.50
814;DHT22;389;48.710;9.392;2022-07-29T16:11:42;24.80;99.00
814;DHT22;389;48.710;9.392;2022-07-29T16:14:08;24.90;99.20
814;DHT22;389;48.710;9.392;2022-07-29T16:16:35;24.80;98.80
814;DHT22;389;48.710;9.392;2022-07-29T16:19:01;24.90;98.70
814;DHT22;389;48.710;9.392;2022-07-29T16:21:27;24.90;98.40
814;DHT22;389;48.710;9.392;2022-07-29T16:23:52;24.90;98.20
814;DHT22;389;48.710;9.392;2022-07-29T16:26:18;25.00;98.40
814;DHT22;389;48.710;9.392;2022-07-29T16:28:44;25.10;98.50
814;DHT22;389;48.710;9.392;2022-07-29T16:31:09;25.20;97.30
814;DHT22;389;48.710;9.392;2022-07-29T16:33:35;25.20;96.50
814;DHT22;389;48.710;9.392;2022-07-29T16:36:01;25.20;96.40
814;DHT22;389;48.710;9.392;2022-07-29T16:38:26;25.20;96.30
814;DHT22;389;48.710;9.392;2022-07-29T16:40:52;25.20;96.30
814;DHT22;389;48.710;9.392;2022-07-29T16:43:18;25.10;96.50
814;DHT22;389;48.710;9.392;2022-07-29T16:45:44;25.10;96.50
814;DHT22;389;48.710;9.392;2022-07-29T16:48:09;25.00;97.10
814;DHT22;389;48.710;9.392;2022-07-29T16:50:35;25.00;97.10
814;DHT22;389;48.710;9.392;2022-07-29T16:53:01;24.90;96.60
814;DHT22;389;48.710;9.392;2022-07-29T16:55:26;24.80;96.60
814;DHT22;389;48.710;9.392;2022-07-29T16:57:52;24.80;96.70
814;DHT22;389;48.710;9.392;2022-07-29T17:00:19;24.80;96.80
814;DHT22;389;48.710;9.392;2022-07-29T17:02:45;24.70;97.30
814;DHT22;389;48.710;9.392;2022-07-29T17:05:11;24.70;97.40
814;DHT22;389;48.710;9.392;2022-07-29T17:07:38;24.60;97.50
814;DHT22;389;48.710;9.392;2022-07-29T17:10:04;24.60;97.50
814;DHT22;389;48.710;9.392;2022-07-29T17:12:32;24.50;97.40
814;DHT22;389;48.710;9.392;2022-07-29T17:14:59;24.50;97.70
814;DHT22;389;48.710;9.392;2022-07-29T17:17:25;24.40;97.70
814;DHT22;389;48.710;9.392;2022-07-29T17:19:50;24.40;97.50
814;DHT22;389;48.710;9.392;2022-07-29T17:22:16;24.30;97.50
814;DHT22;389;48.710;9.392;2022-07-29T17:24:41;24.30;97.50
814;DHT22;389;48.710;9.392;2022-07-29T17:27:08;24.20;98.00
814;DHT22;389;48.710;9.392;2022-07-29T17:29:34;24.20;97.90